createdAt,value
2022-12-01T00:01:23.612Z,23.08
2022-12-01T00:03:50.561Z,28.13
2022-12-01T00:06:21.400Z,21.55
2022-12-01T00:09:11.458Z,26.15
2022-12-01T00:11:39.911Z,21.40
2022-12-01T00:14:07.024Z,25.55
2022-12-01T00:16:34.320Z,30.80
2022-12-01T00:19:01.407Z,30.92
2022-12-01T00:21:28.688Z,21.88
2022-12-01T00:23:58.093Z,25.52
2022-12-01T00:26:27.284Z,25.55
2022-12-01T00:28:59.562Z,21.35
2022-12-01T00:31:36.047Z,23.05
2022-12-01T00:34:06.952Z,19.52
2022-12-01T00:36:38.036Z,24.67
2022-12-01T00:39:04.924Z,21.90
2022-12-01T00:41:31.779Z,25.10
2022-12-01T00:43:58.633Z,24.08
2022-12-01T00:46:25.563Z,25.52
2022-12-01T00:48:52.521Z,25.90
2022-12-01T00:51:19.365Z,22.20
2022-12-01T00:53:46.251Z,20.58
2022-12-01T00:56:13.245Z,27.55
2022-12-01T00:58:40.103Z,22.40
2022-12-01T01:01:07.717Z,24.20
2022-12-01T01:03:35.083Z,30.30
2022-12-01T01:06:12.691Z,25.25
2022-12-01T01:08:40.953Z,27.38
2022-12-01T01:11:09.238Z,25.67
2022-12-01T01:13:37.839Z,23.90
2022-12-01T01:16:22.144Z,22.75
2022-12-01T01:18:49.811Z,23.90
2022-12-01T01:21:21.116Z,26.45
2022-12-01T01:23:51.629Z,26.77
2022-12-01T01:26:27.315Z,34.33
2022-12-01T01:29:00.250Z,27.90
2022-12-01T01:31:30.869Z,24.70
2022-12-01T01:33:58.993Z,19.05
2022-12-01T01:36:27.545Z,21.35
2022-12-01T01:38:55.138Z,23.08
2022-12-01T01:41:23.922Z,23.25
2022-12-01T01:43:57.469Z,25.63
2022-12-01T01:46:32.656Z,28.13
2022-12-01T01:49:14.249Z,27.52
2022-12-01T01:51:50.161Z,25.13
2022-12-01T01:54:39.301Z,27.13
2022-12-01T01:57:11.801Z,25.10
2022-12-01T01:59:55.142Z,27.73
2022-12-01T02:02:22.055Z,28.23
2022-12-01T02:05:00.782Z,26.80
2022-12-01T02:07:27.892Z,31.52
2022-12-01T02:09:56.241Z,27.33
2022-12-01T02:13:28.130Z,26.27
2022-12-01T02:16:25.655Z,25.38
2022-12-01T02:19:52.243Z,28.30
2022-12-01T02:22:58.963Z,26.25
2022-12-01T02:26:16.978Z,23.63
2022-12-01T02:28:58.640Z,24.80
2022-12-01T02:32:00.382Z,35.83
2022-12-01T02:34:56.614Z,25.15
2022-12-01T02:38:14.134Z,27.63
2022-12-01T02:40:56.092Z,23.38
2022-12-01T02:44:23.858Z,24.97
2022-12-01T02:47:14.999Z,27.38
2022-12-01T02:49:50.457Z,24.35
2022-12-01T02:52:20.505Z,26.02
2022-12-01T02:54:48.387Z,26.42
2022-12-01T02:57:17.214Z,27.45
2022-12-01T02:59:54.135Z,32.10
2022-12-01T03:03:02.389Z,25.90
2022-12-01T03:06:24.076Z,27.48
2022-12-01T03:09:25.262Z,25.92
2022-12-01T03:12:28.238Z,27.88
2022-12-01T03:15:14.795Z,30.17
2022-12-01T03:18:19.206Z,24.63
2022-12-01T03:21:20.710Z,27.50
2022-12-01T03:24:07.774Z,32.25
2022-12-01T03:26:40.534Z,23.98
2022-12-01T03:29:17.799Z,30.50
2022-12-01T03:32:08.107Z,27.00
2022-12-01T03:35:06.007Z,28.55
2022-12-01T03:37:51.884Z,25.13
2022-12-01T03:40:27.083Z,26.77
2022-12-01T03:43:15.775Z,30.05
2022-12-01T03:46:18.112Z,30.23
2022-12-01T03:48:46.240Z,25.55
2022-12-01T03:52:19.156Z,24.70
2022-12-01T03:55:21.980Z,29.40
2022-12-01T03:58:36.167Z,23.25
2022-12-01T04:01:06.912Z,28.15
2022-12-01T04:03:34.388Z,25.35
2022-12-01T04:06:01.685Z,24.73
2022-12-01T04:08:30.551Z,28.73
2022-12-01T04:10:57.579Z,27.42
2022-12-01T04:13:25.467Z,26.00
2022-12-01T04:15:56.398Z,25.67
2022-12-01T04:18:23.288Z,25.00
2022-12-01T04:20:50.816Z,28.00
2022-12-01T04:23:36.546Z,28.58
2022-12-01T04:26:05.458Z,28.23
2022-12-01T04:28:32.710Z,26.20
2022-12-01T04:30:59.651Z,27.35
2022-12-01T04:33:26.536Z,28.30
2022-12-01T04:35:59.583Z,27.77
2022-12-01T04:38:30.796Z,28.58
2022-12-01T04:40:58.334Z,32.58
2022-12-01T04:43:25.326Z,27.38
2022-12-01T04:45:52.167Z,34.35
2022-12-01T04:48:19.134Z,27.45
2022-12-01T04:50:49.213Z,29.90
2022-12-01T04:53:16.163Z,28.92
2022-12-01T04:55:43.056Z,28.85
2022-12-01T04:58:09.922Z,31.75
2022-12-01T05:00:37.992Z,28.92
2022-12-01T05:03:06.374Z,28.15
2022-12-01T05:05:35.514Z,32.63
2022-12-01T05:08:02.552Z,27.02
2022-12-01T05:10:29.520Z,30.75
2022-12-01T05:12:58.085Z,28.88
2022-12-01T05:15:25.133Z,33.85
2022-12-01T05:17:52.070Z,36.30
2022-12-01T05:20:44.581Z,31.02
2022-12-01T05:23:16.574Z,29.03
2022-12-01T05:25:43.981Z,29.30
2022-12-01T05:28:10.898Z,28.73
2022-12-01T05:30:37.810Z,27.77
2022-12-01T05:33:04.773Z,28.67
2022-12-01T05:35:34.467Z,27.85
2022-12-01T05:38:07.305Z,30.77
2022-12-01T05:40:36.530Z,23.38
2022-12-01T05:43:03.915Z,22.77
2022-12-01T05:45:31.998Z,28.92
2022-12-01T05:48:01.883Z,27.30
2022-12-01T05:50:30.602Z,31.13
2022-12-01T05:52:57.698Z,29.30
2022-12-01T05:55:24.655Z,28.60
2022-12-01T05:57:51.575Z,27.63
2022-12-01T06:00:19.446Z,23.20
2022-12-01T06:02:46.360Z,29.58
2022-12-01T06:05:13.222Z,23.58
2022-12-01T06:07:40.324Z,27.90
2022-12-01T06:10:09.795Z,26.30
2022-12-01T06:12:37.415Z,19.48
2022-12-01T06:15:06.627Z,23.17
2022-12-01T06:17:39.787Z,23.25
2022-12-01T06:20:09.751Z,29.23
2022-12-01T06:22:36.715Z,27.00
2022-12-01T06:25:04.759Z,24.02
2022-12-01T06:27:31.767Z,22.83
2022-12-01T06:29:58.611Z,25.23
2022-12-01T06:32:25.463Z,25.73
2022-12-01T06:34:52.325Z,21.07
2022-12-01T06:37:19.271Z,21.93
2022-12-01T06:39:46.248Z,24.93
2022-12-01T06:42:13.212Z,22.67
2022-12-01T06:44:40.075Z,24.30
2022-12-01T06:47:08.096Z,26.83
2022-12-01T06:49:35.614Z,25.10
2022-12-01T06:52:02.520Z,24.08
2022-12-01T06:54:29.412Z,24.33
2022-12-01T06:56:56.396Z,23.37
2022-12-01T06:59:23.580Z,24.90
2022-12-01T07:01:50.956Z,27.23
2022-12-01T07:04:17.844Z,28.25
2022-12-01T07:06:44.676Z,22.17
2022-12-01T07:09:11.549Z,24.38
2022-12-01T07:11:38.545Z,20.52
2022-12-01T07:14:05.450Z,29.00
2022-12-01T07:16:32.401Z,23.40
2022-12-01T07:18:59.873Z,23.80
2022-12-01T07:21:26.757Z,23.55
2022-12-01T07:23:54.815Z,25.67
2022-12-01T07:26:22.509Z,22.73
2022-12-01T07:28:49.360Z,28.00
2022-12-01T07:31:19.495Z,24.03
2022-12-01T07:33:46.620Z,26.33
2022-12-01T07:36:15.301Z,22.38
2022-12-01T07:38:42.923Z,25.50
2022-12-01T07:41:14.232Z,27.02
2022-12-01T07:43:42.104Z,29.20
2022-12-01T07:46:23.972Z,20.77
2022-12-01T07:48:53.743Z,21.63
2022-12-01T07:51:23.619Z,23.93
2022-12-01T07:53:52.990Z,30.15
2022-12-01T07:56:23.041Z,29.13
2022-12-01T07:58:50.326Z,21.60
2022-12-01T08:01:22.857Z,23.60
2022-12-01T08:03:54.027Z,22.13
2022-12-01T08:06:22.998Z,26.50
2022-12-01T08:08:50.485Z,36.43
2022-12-01T08:11:23.235Z,30.50
2022-12-01T08:13:52.710Z,26.80
2022-12-01T08:16:23.016Z,26.57
2022-12-01T08:18:51.150Z,23.83
2022-12-01T08:21:22.079Z,25.03
2022-12-01T08:23:54.575Z,25.13
2022-12-01T08:26:24.293Z,23.40
2022-12-01T08:28:51.549Z,21.97
2022-12-01T08:31:29.921Z,25.67
2022-12-01T08:33:58.118Z,23.87
2022-12-01T08:36:26.219Z,29.77
2022-12-01T08:38:56.110Z,26.70
2022-12-01T08:41:24.710Z,28.40
2022-12-01T08:44:00.686Z,27.10
2022-12-01T08:46:34.243Z,24.70
2022-12-01T08:49:04.773Z,23.77
2022-12-01T08:51:33.113Z,19.00
2022-12-01T08:54:00.831Z,24.07
2022-12-01T08:56:40.058Z,23.23
2022-12-01T08:59:08.144Z,26.13
2022-12-01T09:04:06.533Z,27.40
2022-12-01T09:06:40.598Z,23.90
2022-12-01T09:09:16.879Z,25.00
2022-12-01T09:11:44.986Z,17.90
2022-12-01T09:14:15.281Z,21.27
2022-12-01T09:16:44.782Z,24.50
2022-12-01T09:19:14.077Z,25.03
2022-12-01T09:21:43.280Z,24.57
2022-12-01T09:24:14.344Z,22.00
2022-12-01T09:26:42.624Z,25.13
2022-12-01T09:29:15.144Z,22.77
2022-12-01T09:31:43.278Z,21.70
2022-12-01T09:34:20.519Z,21.27
2022-12-01T09:36:48.564Z,24.50
2022-12-01T09:39:20.723Z,19.17
2022-12-01T09:41:58.761Z,19.70
2022-12-01T09:44:54.127Z,22.73
2022-12-01T09:47:34.215Z,22.07
2022-12-01T09:50:25.171Z,21.03
2022-12-01T09:53:03.632Z,20.97
2022-12-01T09:55:32.983Z,21.60
2022-12-01T09:58:05.007Z,22.07
2022-12-01T10:00:43.507Z,20.30
2022-12-01T10:03:46.209Z,19.93
2022-12-01T10:06:29.290Z,20.07
2022-12-01T10:09:47.735Z,29.17
2022-12-01T10:12:22.450Z,21.10
2022-12-01T10:14:50.519Z,25.10
2022-12-01T10:17:55.329Z,43.80
2022-12-01T10:20:44.560Z,24.40
2022-12-01T10:24:01.915Z,35.00
2022-12-01T10:27:22.320Z,22.77
2022-12-01T10:30:18.601Z,18.53
2022-12-01T10:33:17.624Z,22.07
2022-12-01T10:35:44.582Z,40.20
2022-12-01T10:38:35.184Z,18.50
2022-12-01T10:41:09.097Z,24.10
2022-12-01T10:43:51.973Z,18.20
2022-12-01T10:46:29.848Z,19.87
2022-12-01T10:49:07.273Z,19.07
2022-12-01T10:51:53.692Z,26.10
2022-12-01T10:54:25.305Z,27.10
2022-12-01T10:56:57.258Z,21.30
2022-12-01T10:59:48.069Z,21.10
2022-12-01T11:02:22.656Z,23.60
2022-12-01T11:05:05.726Z,27.30
2022-12-01T11:07:43.092Z,24.77
2022-12-01T11:10:24.593Z,18.60
2022-12-01T11:13:22.409Z,16.80
2022-12-01T11:15:57.967Z,20.03
2022-12-01T11:18:34.508Z,18.00
2022-12-01T11:21:28.087Z,19.80
2022-12-01T11:23:56.679Z,19.50
2022-12-01T11:26:34.517Z,18.53
2022-12-01T11:29:23.089Z,20.60
2022-12-01T11:31:52.943Z,24.90
2022-12-01T11:34:28.497Z,21.00
2022-12-01T11:37:02.691Z,18.93
2022-12-01T11:39:38.697Z,16.33
2022-12-01T11:42:30.246Z,19.20
2022-12-01T11:45:20.111Z,18.70
2022-12-01T11:48:12.700Z,18.67
2022-12-01T11:50:45.135Z,18.57
2022-12-01T11:53:38.635Z,17.53
2022-12-01T11:56:25.062Z,19.53
2022-12-01T11:59:09.071Z,21.13
2022-12-01T12:03:03.662Z,18.57
2022-12-01T12:05:49.010Z,19.47
2022-12-01T12:08:46.750Z,19.03
2022-12-01T12:11:34.511Z,23.50
2022-12-01T12:14:48.435Z,19.10
2022-12-01T12:18:03.580Z,19.37
2022-12-01T12:21:28.299Z,16.90
2022-12-01T12:25:07.151Z,23.07
2022-12-01T12:28:37.639Z,19.63
2022-12-01T12:31:29.461Z,19.30
2022-12-01T12:35:10.432Z,17.90
2022-12-01T12:38:50.815Z,18.30
2022-12-01T12:41:37.783Z,18.47
2022-12-01T12:44:50.103Z,20.17
2022-12-01T12:48:03.116Z,19.60
2022-12-01T12:51:20.898Z,17.43
2022-12-01T12:54:29.846Z,18.13
2022-12-01T12:57:19.409Z,20.20
2022-12-01T13:00:00.442Z,15.87
2022-12-01T13:02:50.741Z,20.03
2022-12-01T13:05:43.762Z,17.50
2022-12-01T13:08:47.949Z,15.53
2022-12-01T13:11:31.746Z,16.63
2022-12-01T13:14:30.104Z,20.10
2022-12-01T13:17:30.688Z,20.73
2022-12-01T13:19:57.596Z,23.37
2022-12-01T13:22:34.700Z,17.87
2022-12-01T13:25:04.125Z,25.13
2022-12-01T13:27:43.108Z,19.23
2022-12-01T13:30:26.380Z,20.47
2022-12-01T13:33:07.533Z,16.43
2022-12-01T13:35:39.226Z,19.60
2022-12-01T13:38:34.320Z,19.17
2022-12-01T13:41:19.336Z,18.87
2022-12-01T13:44:41.217Z,21.20
2022-12-01T13:47:11.231Z,22.47
2022-12-01T13:49:48.735Z,19.13
2022-12-01T13:52:21.828Z,26.80
2022-12-01T13:55:08.220Z,18.70
2022-12-01T13:58:14.029Z,18.40
2022-12-01T14:00:41.594Z,20.47
2022-12-01T14:03:20.711Z,23.13
2022-12-01T14:05:53.358Z,16.73
2022-12-01T14:08:32.766Z,16.80
2022-12-01T14:11:24.906Z,15.90
2022-12-01T14:14:09.701Z,18.50
2022-12-01T14:16:59.083Z,20.77
2022-12-01T14:19:52.026Z,23.50
2022-12-01T14:22:44.009Z,18.57
2022-12-01T14:25:30.462Z,20.20
2022-12-01T14:28:03.019Z,18.50
2022-12-01T14:30:45.733Z,22.30
2022-12-01T14:33:50.986Z,16.37
2022-12-01T14:36:23.702Z,15.30
2022-12-01T14:39:02.220Z,16.93
2022-12-01T14:41:46.794Z,18.17
2022-12-01T14:44:31.151Z,16.70
2022-12-01T14:47:11.107Z,14.63
2022-12-01T14:50:21.544Z,12.90
2022-12-01T14:53:06.062Z,17.57
2022-12-01T14:55:50.551Z,16.90
2022-12-01T14:58:31.873Z,16.60
2022-12-01T15:01:13.464Z,16.33
2022-12-01T15:03:56.551Z,15.00
2022-12-01T15:06:28.182Z,16.07
2022-12-01T15:09:36.533Z,17.00
2022-12-01T15:12:07.500Z,18.20
2022-12-01T15:14:49.005Z,17.23
2022-12-01T15:17:36.957Z,15.07
2022-12-01T15:20:32.163Z,13.43
2022-12-01T15:23:07.784Z,14.77
2022-12-01T15:25:36.901Z,15.97
2022-12-01T15:28:17.193Z,16.13
2022-12-01T15:30:51.588Z,19.37
2022-12-01T15:33:36.523Z,16.60
2022-12-01T15:36:06.616Z,20.10
2022-12-01T15:38:40.836Z,16.10
2022-12-01T15:41:29.453Z,15.20
2022-12-01T15:44:05.302Z,16.30
2022-12-01T15:46:34.556Z,16.50
2022-12-01T15:49:49.296Z,16.17
2022-12-01T15:52:16.448Z,15.03
2022-12-01T15:54:49.872Z,22.47
2022-12-01T15:57:21.511Z,16.27
2022-12-01T15:59:57.183Z,15.00
2022-12-01T16:02:33.581Z,16.53
2022-12-01T16:05:35.046Z,15.77
2022-12-01T16:08:34.332Z,18.17
2022-12-01T16:11:18.812Z,14.13
2022-12-01T16:14:04.116Z,21.43
2022-12-01T16:16:49.071Z,19.80
2022-12-01T16:19:18.948Z,22.40
2022-12-01T16:21:59.960Z,13.83
2022-12-01T16:24:36.272Z,25.17
2022-12-01T16:27:30.713Z,16.10
2022-12-01T16:30:23.283Z,18.13
2022-12-01T16:32:51.186Z,16.63
2022-12-01T16:35:33.966Z,20.27
2022-12-01T16:38:16.096Z,16.87
2022-12-01T16:40:43.810Z,16.67
2022-12-01T16:43:22.645Z,14.53
2022-12-01T16:45:58.681Z,15.17
2022-12-01T16:48:26.169Z,17.63
2022-12-01T16:50:54.202Z,20.07
2022-12-01T16:53:21.228Z,19.10
2022-12-01T16:55:55.091Z,18.47
2022-12-01T16:58:22.801Z,21.70
2022-12-01T17:00:52.536Z,16.20
2022-12-01T17:03:27.017Z,17.23
2022-12-01T17:05:55.262Z,16.57
2022-12-01T17:08:22.906Z,16.03
2022-12-01T17:10:52.462Z,19.70
2022-12-01T17:13:25.549Z,21.07
2022-12-01T17:15:55.339Z,17.93
2022-12-01T17:18:24.112Z,15.73
2022-12-01T17:21:04.613Z,19.30
2022-12-01T17:23:32.964Z,18.33
2022-12-01T17:26:01.258Z,20.03
2022-12-01T17:28:28.215Z,15.20
2022-12-01T17:30:59.927Z,12.97
2022-12-01T17:33:26.786Z,16.70
2022-12-01T17:35:53.678Z,16.73
2022-12-01T17:38:20.610Z,19.73
2022-12-01T17:41:11.770Z,15.20
2022-12-01T17:43:40.521Z,17.93
2022-12-01T17:46:12.087Z,18.23
2022-12-01T17:48:43.971Z,14.73
2022-12-01T17:51:14.137Z,14.40
2022-12-01T17:53:41.534Z,21.33
2022-12-01T17:56:13.156Z,17.47
2022-12-01T17:58:40.435Z,16.17
2022-12-01T18:01:16.522Z,18.23
2022-12-01T18:03:44.408Z,13.47
2022-12-01T18:06:13.350Z,13.87
2022-12-01T18:08:41.760Z,15.67
2022-12-01T18:11:13.877Z,18.67
2022-12-01T18:13:46.675Z,16.00
2022-12-01T18:16:29.329Z,17.53
2022-12-01T18:18:59.627Z,27.50
2022-12-01T18:21:28.311Z,17.13
2022-12-01T18:24:00.955Z,18.80
2022-12-01T18:26:32.595Z,19.77
2022-12-01T18:29:06.040Z,17.67
2022-12-01T18:31:33.787Z,18.23
2022-12-01T18:34:06.732Z,17.57
2022-12-01T18:36:39.481Z,14.60
2022-12-01T18:39:09.200Z,17.27
2022-12-01T18:41:37.245Z,21.13
2022-12-01T18:44:04.771Z,19.07
2022-12-01T18:46:32.889Z,15.67
2022-12-01T18:49:02.079Z,18.10
2022-12-01T18:51:38.037Z,17.60
2022-12-01T18:54:10.228Z,15.47
2022-12-01T18:56:37.203Z,14.63
2022-12-01T18:59:09.845Z,21.17
2022-12-01T19:01:43.833Z,22.27
2022-12-01T19:04:11.474Z,18.53
2022-12-01T19:06:41.353Z,21.80
2022-12-01T19:09:12.480Z,19.77
2022-12-01T19:11:41.597Z,19.13
2022-12-01T19:14:18.140Z,20.53
2022-12-01T19:16:45.985Z,22.40
2022-12-01T19:19:13.067Z,20.13
2022-12-01T19:21:40.566Z,18.40
2022-12-01T19:24:07.809Z,25.40
2022-12-01T19:26:34.668Z,21.87
2022-12-01T19:29:01.568Z,21.50
2022-12-01T19:31:28.516Z,20.27
2022-12-01T19:33:56.156Z,17.87
2022-12-01T19:36:27.655Z,21.87
2022-12-01T19:39:00.150Z,18.47
2022-12-01T19:41:27.677Z,18.53
2022-12-01T19:43:55.575Z,23.67
2022-12-01T19:46:27.329Z,18.70
2022-12-01T19:49:01.053Z,17.27
2022-12-01T19:51:35.038Z,20.57
2022-12-01T19:54:04.808Z,19.63
2022-12-01T19:56:32.491Z,20.80
2022-12-01T19:59:00.348Z,16.70
2022-12-01T20:01:28.698Z,19.87
2022-12-01T20:03:55.881Z,18.17
2022-12-01T20:06:29.091Z,23.10
2022-12-01T20:09:00.683Z,20.20
2022-12-01T20:11:35.323Z,18.42
2022-12-01T20:14:07.539Z,24.73
2022-12-01T20:16:34.535Z,18.47
2022-12-01T20:19:05.570Z,22.90
2022-12-01T20:21:39.113Z,25.95
2022-12-01T20:24:11.140Z,17.53
2022-12-01T20:26:53.098Z,24.45
2022-12-01T20:29:27.974Z,25.20
2022-12-01T20:32:00.173Z,18.73
2022-12-01T20:34:35.715Z,22.67
2022-12-01T20:37:04.338Z,18.57
2022-12-01T20:39:34.430Z,18.43
2022-12-01T20:42:01.497Z,20.20
2022-12-01T20:44:28.600Z,20.70
2022-12-01T20:46:55.880Z,18.00
2022-12-01T20:49:23.251Z,22.58
2022-12-01T20:51:50.171Z,25.13
2022-12-01T20:54:28.184Z,22.77
2022-12-01T20:56:57.863Z,25.65
2022-12-01T20:59:25.511Z,20.33
2022-12-01T21:01:52.436Z,22.83
2022-12-01T21:04:19.380Z,20.93
2022-12-01T21:06:46.720Z,24.33
2022-12-01T21:09:14.791Z,24.00
2022-12-01T21:12:07.625Z,18.58
2022-12-01T21:15:01.263Z,22.20
2022-12-01T21:18:09.862Z,24.38
2022-12-01T21:20:43.887Z,23.33
2022-12-01T21:23:16.051Z,17.63
2022-12-01T21:25:44.532Z,23.15
2022-12-01T21:28:26.046Z,21.73
2022-12-01T21:31:14.352Z,22.00
2022-12-01T21:33:42.805Z,23.70
2022-12-01T21:36:19.304Z,21.92
2022-12-01T21:38:50.982Z,20.10
2022-12-01T21:41:31.372Z,20.40
2022-12-01T21:44:16.400Z,23.47
2022-12-01T21:46:44.388Z,26.70
2022-12-01T21:49:31.096Z,23.13
2022-12-01T21:51:58.947Z,25.30
2022-12-01T21:54:25.924Z,19.43
2022-12-01T21:56:59.538Z,24.93
2022-12-01T21:59:27.699Z,23.33
2022-12-01T22:01:57.153Z,27.77
2022-12-01T22:04:30.447Z,28.05
2022-12-01T22:06:58.212Z,24.40
2022-12-01T22:09:35.255Z,26.27
2022-12-01T22:12:28.684Z,27.87
2022-12-01T22:15:01.962Z,26.27
2022-12-01T22:17:30.064Z,28.75
2022-12-01T22:20:02.394Z,33.53
2022-12-01T22:22:32.529Z,25.20
2022-12-01T22:25:27.251Z,27.23
2022-12-01T22:27:54.629Z,26.10
2022-12-01T22:30:24.125Z,29.43
2022-12-01T22:33:03.485Z,31.00
2022-12-01T22:35:48.197Z,32.73
2022-12-01T22:38:35.934Z,30.27
2022-12-01T22:41:16.746Z,29.42
2022-12-01T22:44:00.541Z,30.05
2022-12-01T22:46:39.670Z,36.13
2022-12-01T22:49:06.464Z,29.20
2022-12-01T22:51:56.486Z,29.60
2022-12-01T22:54:39.554Z,34.73
2022-12-01T22:57:33.166Z,28.27
2022-12-01T23:00:17.565Z,33.67
2022-12-01T23:02:48.157Z,34.90
2022-12-01T23:05:27.189Z,30.63
2022-12-01T23:07:56.085Z,35.10
2022-12-01T23:10:34.747Z,28.47
2022-12-01T23:13:29.450Z,35.40
2022-12-01T23:15:56.491Z,31.90
2022-12-01T23:18:31.929Z,34.87
2022-12-01T23:21:01.978Z,35.07
2022-12-01T23:23:36.346Z,32.03
2022-12-01T23:26:08.365Z,36.73
2022-12-01T23:28:38.973Z,40.70
2022-12-01T23:31:06.110Z,32.37
2022-12-01T23:33:35.096Z,36.17
2022-12-01T23:36:25.680Z,34.53
2022-12-01T23:39:03.560Z,36.30
2022-12-01T23:41:50.921Z,45.53
2022-12-01T23:44:32.731Z,41.10
2022-12-01T23:46:59.895Z,33.67
2022-12-01T23:49:34.879Z,36.80
2022-12-01T23:52:03.515Z,34.87
2022-12-01T23:54:34.811Z,34.97
2022-12-01T23:57:16.246Z,41.87
2022-12-01T23:59:44.651Z,36.83
